Mingus, TX (76463)

12:41 PM CDT on August 04, 2015 (GMT -0500)
Santo, TX | | Change Station
CLOSE
Current Station
Personal Weather Station
Location: Santo, TX
Elevation: 866 ft
Nearby Weather Stations

Elev 866 ft 32.64 °N, 98.22 °W | Updated 4 minutes ago

Partly Cloudy
Partly Cloudy
101.1 °F
Feels Like 112 °F
N
1.7
Wind Variable Wind from West

Today
High -- | Low -- °F
--% Chance of Precip.
Yesterday
High -- | Low -- °F
Precip. -- in
6:49 AM 8:29 PM
Waning Gibbous, 76% visible
Pressure 29.92 in
Visibility 10.0 miles
Clouds Few 4700 ft
Mostly Cloudy 10000 ft
Heat Index 112 °F
Dew Point 72 °F
Humidity 40%
Rainfall 0.00 in
Snow Depth Not available.
UV 5 out of 12
Pollen 4.90 out of 12
Air Quality Not available.
Flu Activity Not available.
METAR KMWL 041653Z AUTO 20011G15KT 10SM FEW047 BKN100 32/21 A2997 RMK AO2 SLP132 T03170211

More Conditions Fewer Conditions

Pressure 29.92 in
Visibility 10.0 miles
Clouds Few 4700 ft
Mostly Cloudy 10000 ft
Heat Index 112 °F
Dew Point 72 °F
Humidity 40%
Rainfall 0.00 in
Snow Depth Not available.
UV 5 out of 12
Pollen 4.90 out of 12
Air Quality Not available.
Flu Activity Not available.
METAR KMWL 041653Z AUTO 20011G15KT 10SM FEW047 BKN100 32/21 A2997 RMK AO2 SLP132 T03170211

More Conditions Fewer Conditions

10-Day Weather Forecast

×

Almanac

Astronomy

Aug. 04, 2015 Rise Set
Actual Time
Civil Twilight
Nautical Twilight
Astronomical Twilight
Moon
Length of Visible Light
Length of Day
Tomorrow will be .
, % of the Moon is Illuminated

Today's Extremes

State Highs State Lows

Community

WunderPhotos

Upload Photos

1,843,927 photos uploaded!

WunderBlogs® & News

Nearby

Air Quality

  Air Quality AQ Index Pollutant
Not available.

Snow Depth

Station Depth Elevation

Earthquake Activity

City Distance Mag. Time & Date
Minimum magnitude displayed is 2.5.

Coastal Water Temperatures

Place Temperature

Stations

Nearby Weather Stations

Station Location Temp. Windchill Dew Point Humidity Wind Precip. Elev Updated Type